sensor_id;sensor_type;location;lat;lon;timestamp;temperature;humidity
3980;DHT22;2004;52.452;13.120;2022-08-11T00:01:43;18.90;88.40
3980;DHT22;2004;52.452;13.120;2022-08-11T00:09:36;18.70;89.30
3980;DHT22;2004;52.452;13.120;2022-08-11T00:17:30;18.60;90.30
3980;DHT22;2004;52.452;13.120;2022-08-11T00:25:22;18.50;91.40
3980;DHT22;2004;52.452;13.120;2022-08-11T00:33:13;18.40;92.40
3980;DHT22;2004;52.452;13.120;2022-08-11T00:41:17;18.30;93.60
3980;DHT22;2004;52.452;13.120;2022-08-11T01:23:02;17.70;99.90
3980;DHT22;2004;52.452;13.120;2022-08-11T01:47:37;17.30;99.90
3980;DHT22;2004;52.452;13.120;2022-08-11T02:04:05;17.10;99.90
3980;DHT22;2004;52.452;13.120;2022-08-11T02:12:09;17.00;99.90
3980;DHT22;2004;52.452;13.120;2022-08-11T02:20:13;16.90;99.90
3980;DHT22;2004;52.452;13.120;2022-08-11T02:36:51;16.70;99.90
3980;DHT22;2004;52.452;13.120;2022-08-11T02:53:21;16.40;99.90
3980;DHT22;2004;52.452;13.120;2022-08-11T03:01:25;16.30;99.90
3980;DHT22;2004;52.452;13.120;2022-08-11T03:33:47;15.90;99.90
3980;DHT22;2004;52.452;13.120;2022-08-11T03:58:29;15.70;99.90
3980;DHT22;2004;52.452;13.120;2022-08-11T04:23:40;15.50;99.90
3980;DHT22;2004;52.452;13.120;2022-08-11T04:31:44;15.50;99.90
3980;DHT22;2004;52.452;13.120;2022-08-11T04:56:58;15.50;99.90
3980;DHT22;2004;52.452;13.120;2022-08-11T05:22:09;15.70;99.90
3980;DHT22;2004;52.452;13.120;2022-08-11T05:30:26;15.80;99.90
3980;DHT22;2004;52.452;13.120;2022-08-11T05:38:36;16.10;99.90
3980;DHT22;2004;52.452;13.120;2022-08-11T05:46:46;16.30;99.90
3980;DHT22;2004;52.452;13.120;2022-08-11T05:55:01;16.60;99.90
3980;DHT22;2004;52.452;13.120;2022-08-11T06:03:19;16.90;99.90
3980;DHT22;2004;52.452;13.120;2022-08-11T06:11:12;17.20;99.90
3980;DHT22;2004;52.452;13.120;2022-08-11T06:19:03;17.50;99.90
3980;DHT22;2004;52.452;13.120;2022-08-11T06:26:54;17.70;99.90
3980;DHT22;2004;52.452;13.120;2022-08-11T06:35:15;18.00;99.90
3980;DHT22;2004;52.452;13.120;2022-08-11T06:43:22;18.30;99.90
3980;DHT22;2004;52.452;13.120;2022-08-11T06:51:14;18.50;99.90
3980;DHT22;2004;52.452;13.120;2022-08-11T06:59:06;18.80;98.60
3980;DHT22;2004;52.452;13.120;2022-08-11T07:16:09;19.30;95.80
3980;DHT22;2004;52.452;13.120;2022-08-11T07:24:03;19.60;94.30
3980;DHT22;2004;52.452;13.120;2022-08-11T07:32:26;19.80;92.90
3980;DHT22;2004;52.452;13.120;2022-08-11T07:40:20;20.10;90.90
3980;DHT22;2004;52.452;13.120;2022-08-11T07:48:13;20.40;90.30
3980;DHT22;2004;52.452;13.120;2022-08-11T07:56:22;20.70;88.20
3980;DHT22;2004;52.452;13.120;2022-08-11T08:04:15;21.00;84.10
3980;DHT22;2004;52.452;13.120;2022-08-11T08:12:25;21.40;81.30
3980;DHT22;2004;52.452;13.120;2022-08-11T08:20:43;21.70;79.40
3980;DHT22;2004;52.452;13.120;2022-08-11T08:28:34;22.00;76.20
3980;DHT22;2004;52.452;13.120;2022-08-11T08:36:25;22.30;73.00
3980;DHT22;2004;52.452;13.120;2022-08-11T08:44:17;22.70;70.70
3980;DHT22;2004;52.452;13.120;2022-08-11T08:52:10;23.00;69.80
3980;DHT22;2004;52.452;13.120;2022-08-11T09:00:04;23.30;67.30
3980;DHT22;2004;52.452;13.120;2022-08-11T09:07:55;23.60;65.20
3980;DHT22;2004;52.452;13.120;2022-08-11T09:15:47;23.90;65.50
3980;DHT22;2004;52.452;13.120;2022-08-11T09:23:39;24.10;63.40
3980;DHT22;2004;52.452;13.120;2022-08-11T09:31:49;24.20;61.40
3980;DHT22;2004;52.452;13.120;2022-08-11T09:39:41;24.40;60.50
3980;DHT22;2004;52.452;13.120;2022-08-11T09:47:51;24.50;60.30
3980;DHT22;2004;52.452;13.120;2022-08-11T09:55:43;24.60;58.50
3980;DHT22;2004;52.452;13.120;2022-08-11T10:03:37;24.90;57.50
3980;DHT22;2004;52.452;13.120;2022-08-11T10:11:30;25.00;57.60
3980;DHT22;2004;52.452;13.120;2022-08-11T10:19:21;25.20;56.20
3980;DHT22;2004;52.452;13.120;2022-08-11T10:27:12;25.30;56.90
3980;DHT22;2004;52.452;13.120;2022-08-11T10:35:04;25.40;56.10
3980;DHT22;2004;52.452;13.120;2022-08-11T10:42:59;25.40;55.40
3980;DHT22;2004;52.452;13.120;2022-08-11T10:50:57;25.50;55.30
3980;DHT22;2004;52.452;13.120;2022-08-11T10:59:05;25.80;55.10
3980;DHT22;2004;52.452;13.120;2022-08-11T11:07:07;25.90;52.50
3980;DHT22;2004;52.452;13.120;2022-08-11T11:15:05;26.10;51.20
3980;DHT22;2004;52.452;13.120;2022-08-11T11:23:18;26.30;51.00
3980;DHT22;2004;52.452;13.120;2022-08-11T11:39:22;27.00;50.90
3980;DHT22;2004;52.452;13.120;2022-08-11T11:47:14;27.20;49.20
3980;DHT22;2004;52.452;13.120;2022-08-11T11:55:06;27.50;50.00
3980;DHT22;2004;52.452;13.120;2022-08-11T12:02:59;27.60;49.80
3980;DHT22;2004;52.452;13.120;2022-08-11T12:11:02;27.80;49.30
3980;DHT22;2004;52.452;13.120;2022-08-11T12:19:25;27.90;48.30
3980;DHT22;2004;52.452;13.120;2022-08-11T12:27:18;28.10;46.20
3980;DHT22;2004;52.452;13.120;2022-08-11T12:35:14;28.10;47.50
3980;DHT22;2004;52.452;13.120;2022-08-11T12:43:08;28.10;47.10
3980;DHT22;2004;52.452;13.120;2022-08-11T12:51:21;28.20;46.90
3980;DHT22;2004;52.452;13.120;2022-08-11T12:59:31;28.30;46.70
3980;DHT22;2004;52.452;13.120;2022-08-11T13:07:44;28.40;46.70
3980;DHT22;2004;52.452;13.120;2022-08-11T13:15:36;28.50;47.00
3980;DHT22;2004;52.452;13.120;2022-08-11T13:23:27;28.60;46.40
3980;DHT22;2004;52.452;13.120;2022-08-11T13:31:19;28.60;46.70
3980;DHT22;2004;52.452;13.120;2022-08-11T13:39:09;28.60;46.10
3980;DHT22;2004;52.452;13.120;2022-08-11T13:47:02;28.60;45.70
3980;DHT22;2004;52.452;13.120;2022-08-11T13:54:54;28.60;45.40
3980;DHT22;2004;52.452;13.120;2022-08-11T14:02:47;28.60;46.60
3980;DHT22;2004;52.452;13.120;2022-08-11T14:10:39;28.60;44.30
3980;DHT22;2004;52.452;13.120;2022-08-11T14:18:31;28.60;44.30
3980;DHT22;2004;52.452;13.120;2022-08-11T14:26:23;28.60;43.50
3980;DHT22;2004;52.452;13.120;2022-08-11T14:34:18;28.60;43.80
3980;DHT22;2004;52.452;13.120;2022-08-11T14:42:13;28.50;44.00
3980;DHT22;2004;52.452;13.120;2022-08-11T14:50:24;28.50;43.90
3980;DHT22;2004;52.452;13.120;2022-08-11T14:58:17;28.40;42.40
3980;DHT22;2004;52.452;13.120;2022-08-11T15:06:08;28.40;44.80
3980;DHT22;2004;52.452;13.120;2022-08-11T15:14:01;28.40;44.60
3980;DHT22;2004;52.452;13.120;2022-08-11T15:21:52;28.30;44.70
3980;DHT22;2004;52.452;13.120;2022-08-11T15:30:03;28.30;44.60
3980;DHT22;2004;52.452;13.120;2022-08-11T15:38:14;28.20;44.80
3980;DHT22;2004;52.452;13.120;2022-08-11T15:46:11;28.20;43.60
3980;DHT22;2004;52.452;13.120;2022-08-11T15:54:08;28.10;44.00
3980;DHT22;2004;52.452;13.120;2022-08-11T16:02:01;28.10;43.90
3980;DHT22;2004;52.452;13.120;2022-08-11T16:10:13;27.90;42.20
3980;DHT22;2004;52.452;13.120;2022-08-11T16:18:15;27.70;43.20
3980;DHT22;2004;52.452;13.120;2022-08-11T16:26:08;27.70;42.70
3980;DHT22;2004;52.452;13.120;2022-08-11T16:34:00;27.60;41.80
3980;DHT22;2004;52.452;13.120;2022-08-11T16:41:52;27.50;42.30
3980;DHT22;2004;52.452;13.120;2022-08-11T16:50:02;27.50;42.50
3980;DHT22;2004;52.452;13.120;2022-08-11T16:57:53;27.40;41.10
3980;DHT22;2004;52.452;13.120;2022-08-11T17:06:05;27.40;42.50
3980;DHT22;2004;52.452;13.120;2022-08-11T17:14:24;27.30;42.00
3980;DHT22;2004;52.452;13.120;2022-08-11T17:22:17;27.30;42.50
3980;DHT22;2004;52.452;13.120;2022-08-11T17:30:29;27.20;42.60
3980;DHT22;2004;52.452;13.120;2022-08-11T17:38:41;27.10;39.50
3980;DHT22;2004;52.452;13.120;2022-08-11T17:46:34;27.00;43.00
3980;DHT22;2004;52.452;13.120;2022-08-11T17:54:44;26.90;44.10
3980;DHT22;2004;52.452;13.120;2022-08-11T18:02:55;26.70;43.50
3980;DHT22;2004;52.452;13.120;2022-08-11T18:11:06;26.50;42.90
3980;DHT22;2004;52.452;13.120;2022-08-11T18:19:16;26.30;43.40
3980;DHT22;2004;52.452;13.120;2022-08-11T18:27:29;26.10;44.30
3980;DHT22;2004;52.452;13.120;2022-08-11T18:35:40;25.90;45.30
3980;DHT22;2004;52.452;13.120;2022-08-11T18:43:50;25.60;44.30
3980;DHT22;2004;52.452;13.120;2022-08-11T18:52:00;25.30;44.90
3980;DHT22;2004;52.452;13.120;2022-08-11T19:00:11;25.10;45.00
3980;DHT22;2004;52.452;13.120;2022-08-11T19:08:21;24.80;45.60
3980;DHT22;2004;52.452;13.120;2022-08-11T19:16:31;24.60;48.20
3980;DHT22;2004;52.452;13.120;2022-08-11T19:24:44;24.40;48.70
3980;DHT22;2004;52.452;13.120;2022-08-11T19:32:55;24.20;50.30
3980;DHT22;2004;52.452;13.120;2022-08-11T19:41:04;23.90;49.80
3980;DHT22;2004;52.452;13.120;2022-08-11T19:49:15;23.70;50.30
3980;DHT22;2004;52.452;13.120;2022-08-11T19:57:25;23.50;50.90
3980;DHT22;2004;52.452;13.120;2022-08-11T20:05:35;23.30;51.70
3980;DHT22;2004;52.452;13.120;2022-08-11T20:13:45;23.10;53.30
3980;DHT22;2004;52.452;13.120;2022-08-11T20:21:56;22.90;54.40
3980;DHT22;2004;52.452;13.120;2022-08-11T20:30:07;22.70;55.20
3980;DHT22;2004;52.452;13.120;2022-08-11T20:38:16;22.50;55.70
3980;DHT22;2004;52.452;13.120;2022-08-11T20:46:28;22.30;55.30
3980;DHT22;2004;52.452;13.120;2022-08-11T20:54:38;22.10;56.00
3980;DHT22;2004;52.452;13.120;2022-08-11T21:02:49;21.90;57.10
3980;DHT22;2004;52.452;13.120;2022-08-11T21:10:59;21.70;57.20
3980;DHT22;2004;52.452;13.120;2022-08-11T21:19:15;21.50;56.90
3980;DHT22;2004;52.452;13.120;2022-08-11T21:27:31;21.30;58.80
3980;DHT22;2004;52.452;13.120;2022-08-11T21:35:41;21.10;58.70
3980;DHT22;2004;52.452;13.120;2022-08-11T21:43:51;20.90;58.40
3980;DHT22;2004;52.452;13.120;2022-08-11T21:52:01;20.60;59.50
3980;DHT22;2004;52.452;13.120;2022-08-11T22:00:10;20.40;59.00
3980;DHT22;2004;52.452;13.120;2022-08-11T22:08:19;20.20;58.90
3980;DHT22;2004;52.452;13.120;2022-08-11T22:16:28;20.10;59.70
3980;DHT22;2004;52.452;13.120;2022-08-11T22:24:38;20.00;61.10
3980;DHT22;2004;52.452;13.120;2022-08-11T22:32:47;19.80;61.80
3980;DHT22;2004;52.452;13.120;2022-08-11T22:40:56;19.70;62.70
3980;DHT22;2004;52.452;13.120;2022-08-11T22:49:06;19.60;63.60
3980;DHT22;2004;52.452;13.120;2022-08-11T22:57:18;19.50;64.30
3980;DHT22;2004;52.452;13.120;2022-08-11T23:05:29;19.40;64.70
3980;DHT22;2004;52.452;13.120;2022-08-11T23:13:38;19.40;65.30
3980;DHT22;2004;52.452;13.120;2022-08-11T23:21:48;19.20;66.40
3980;DHT22;2004;52.452;13.120;2022-08-11T23:29:59;19.10;67.20
3980;DHT22;2004;52.452;13.120;2022-08-11T23:38:09;19.00;68.20
3980;DHT22;2004;52.452;13.120;2022-08-11T23:46:20;18.90;69.30
3980;DHT22;2004;52.452;13.120;2022-08-11T23:54:29;18.80;70.20
